createdAt,value
2023-04-21T00:01:08.276Z,20.90
2023-04-21T00:03:41.274Z,20.80
2023-04-21T00:06:15.035Z,20.80
2023-04-21T00:08:48.276Z,20.90
2023-04-21T00:11:21.094Z,20.90
2023-04-21T00:13:53.626Z,20.90
2023-04-21T00:16:27.044Z,20.90
2023-04-21T00:18:59.755Z,20.90
2023-04-21T00:21:32.872Z,20.90
2023-04-21T00:24:06.152Z,20.90
2023-04-21T00:26:39.073Z,20.90
2023-04-21T00:29:12.016Z,20.80
2023-04-21T00:31:44.788Z,20.80
2023-04-21T00:34:17.440Z,20.80
2023-04-21T00:36:50.132Z,20.90
2023-04-21T00:39:22.897Z,20.90
2023-04-21T00:41:55.690Z,20.90
2023-04-21T00:44:28.404Z,20.90
2023-04-21T00:47:01.294Z,20.90
2023-04-21T00:49:34.382Z,20.90
2023-04-21T00:52:08.468Z,20.90
2023-04-21T00:54:41.542Z,20.90
2023-04-21T00:57:15.515Z,20.90
2023-04-21T00:59:48.501Z,20.90
2023-04-21T01:02:22.335Z,20.90
2023-04-21T01:04:55.266Z,20.90
2023-04-21T01:07:28.955Z,20.90
2023-04-21T01:10:01.772Z,20.90
2023-04-21T01:12:34.642Z,20.90
2023-04-21T01:15:07.652Z,20.90
2023-04-21T01:17:40.488Z,20.90
2023-04-21T01:20:18.039Z,20.90
2023-04-21T01:22:52.216Z,20.90
2023-04-21T01:25:29.100Z,20.90
2023-04-21T01:28:02.095Z,20.90
2023-04-21T01:30:34.972Z,20.90
2023-04-21T01:33:08.173Z,20.80
2023-04-21T01:35:40.907Z,20.90
2023-04-21T01:38:13.758Z,20.80
2023-04-21T01:40:48.004Z,20.80
2023-04-21T01:43:22.935Z,20.80
2023-04-21T01:45:55.883Z,20.80
2023-04-21T01:48:28.891Z,20.80
2023-04-21T01:51:01.874Z,20.80
2023-04-21T01:53:34.902Z,20.80
2023-04-21T01:56:07.918Z,20.70
2023-04-21T01:58:40.998Z,20.70
2023-04-21T02:01:13.787Z,20.70
2023-04-21T02:03:48.254Z,20.70
2023-04-21T02:06:21.527Z,20.70
2023-04-21T02:08:54.382Z,20.70
2023-04-21T02:11:27.226Z,20.70
2023-04-21T02:14:00.553Z,20.60
2023-04-21T02:16:33.381Z,20.60
2023-04-21T02:19:06.430Z,20.60
2023-04-21T02:21:39.633Z,20.60
2023-04-21T02:24:13.264Z,20.60
2023-04-21T02:26:46.408Z,20.60
2023-04-21T02:29:19.392Z,20.60
2023-04-21T02:32:05.280Z,20.60
2023-04-21T02:34:30.883Z,20.60
2023-04-21T02:37:04.351Z,20.60
2023-04-21T02:39:37.338Z,20.60
2023-04-21T02:42:10.416Z,20.60
2023-04-21T02:44:44.768Z,20.60
2023-04-21T02:47:21.553Z,20.60
2023-04-21T02:49:54.599Z,20.50
2023-04-21T02:52:27.760Z,20.50
2023-04-21T02:55:00.704Z,20.50
2023-04-21T02:57:33.686Z,20.50
2023-04-21T03:00:07.133Z,20.50
2023-04-21T03:02:40.320Z,20.50
2023-04-21T03:05:14.550Z,20.50
2023-04-21T03:07:48.291Z,20.50
2023-04-21T03:10:36.185Z,20.50
2023-04-21T03:13:15.284Z,20.50
2023-04-21T03:15:51.370Z,20.50
2023-04-21T03:18:24.512Z,20.40
2023-04-21T03:21:03.382Z,20.40
2023-04-21T03:23:37.099Z,20.40
2023-04-21T03:26:13.652Z,20.40
2023-04-21T03:28:49.147Z,20.40
2023-04-21T03:31:22.122Z,20.40
2023-04-21T03:33:55.176Z,20.40
2023-04-21T03:36:28.262Z,20.40
2023-04-21T03:39:09.400Z,20.40
2023-04-21T03:41:36.635Z,20.30
2023-04-21T03:44:09.601Z,20.30
2023-04-21T03:46:42.788Z,20.20
2023-04-21T03:49:15.606Z,20.10
2023-04-21T03:51:52.943Z,20.10
2023-04-21T03:54:25.902Z,20.00
2023-04-21T03:56:58.843Z,19.90
2023-04-21T03:59:31.852Z,19.90
2023-04-21T04:02:05.018Z,19.90
2023-04-21T04:04:38.503Z,19.80
2023-04-21T04:07:12.024Z,19.80
2023-04-21T04:09:45.627Z,19.80
2023-04-21T04:12:18.704Z,19.70
2023-04-21T04:14:51.692Z,19.70
2023-04-21T04:17:24.772Z,19.70
2023-04-21T04:19:57.780Z,19.70
2023-04-21T04:22:30.700Z,19.70
2023-04-21T04:25:04.071Z,19.70
2023-04-21T04:27:41.928Z,19.70
2023-04-21T04:30:15.780Z,19.70
2023-04-21T04:32:48.913Z,19.60
2023-04-21T04:35:22.153Z,19.60
2023-04-21T04:37:56.355Z,19.60
2023-04-21T04:40:30.662Z,19.60
2023-04-21T04:43:04.541Z,19.60
2023-04-21T04:45:38.271Z,19.60
2023-04-21T04:48:11.401Z,19.60
2023-04-21T04:50:44.293Z,19.60
2023-04-21T04:53:17.265Z,19.60
2023-04-21T04:55:50.261Z,19.60
2023-04-21T04:58:23.260Z,19.60
2023-04-21T05:00:56.353Z,19.60
2023-04-21T05:03:29.531Z,19.60
2023-04-21T05:06:02.980Z,19.60
2023-04-21T05:08:35.754Z,19.60
2023-04-21T05:11:08.643Z,19.60
2023-04-21T05:13:41.511Z,19.60
2023-04-21T05:16:14.516Z,19.60
2023-04-21T05:18:47.627Z,19.50
2023-04-21T05:21:22.236Z,19.50
2023-04-21T05:23:55.251Z,19.50
2023-04-21T05:26:29.372Z,19.50
2023-04-21T05:29:02.664Z,19.50
2023-04-21T05:31:35.666Z,19.50
2023-04-21T05:34:08.480Z,19.50
2023-04-21T05:36:42.922Z,19.50
2023-04-21T05:39:15.787Z,19.50
2023-04-21T05:41:48.424Z,19.50
2023-04-21T05:44:24.008Z,19.50
2023-04-21T05:47:00.856Z,19.50
2023-04-21T05:49:33.671Z,19.50
2023-04-21T05:52:06.518Z,19.50
2023-04-21T05:54:39.771Z,19.50
2023-04-21T05:57:12.714Z,19.50
2023-04-21T05:59:45.676Z,19.50
2023-04-21T06:02:18.653Z,19.50
2023-04-21T06:04:51.831Z,19.50
2023-04-21T06:07:29.394Z,19.50
2023-04-21T06:10:02.368Z,19.50
2023-04-21T06:12:35.225Z,19.50
2023-04-21T06:15:08.550Z,19.50
2023-04-21T06:17:41.450Z,19.50
2023-04-21T06:20:15.330Z,19.50
2023-04-21T06:22:48.263Z,19.50
2023-04-21T06:25:21.422Z,19.50
2023-04-21T06:27:56.739Z,19.50
2023-04-21T06:30:30.638Z,19.50
2023-04-21T06:33:03.567Z,19.50
2023-04-21T06:35:36.518Z,19.50
2023-04-21T06:38:10.644Z,19.50
2023-04-21T06:40:43.612Z,19.50
2023-04-21T06:43:16.734Z,19.50
2023-04-21T06:45:49.690Z,19.50
2023-04-21T06:48:22.734Z,19.50
2023-04-21T06:50:55.796Z,19.50
2023-04-21T06:53:28.787Z,19.50
2023-04-21T06:56:01.714Z,19.50
2023-04-21T06:58:34.710Z,19.50
2023-04-21T07:01:07.796Z,19.50
2023-04-21T07:03:41.077Z,19.50
2023-04-21T07:06:14.242Z,19.40
2023-04-21T07:08:47.031Z,19.40
2023-04-21T07:11:20.032Z,19.40
2023-04-21T07:13:52.978Z,19.40
2023-04-21T07:16:26.396Z,19.40
2023-04-21T07:18:59.389Z,19.40
2023-04-21T07:21:36.580Z,19.40
2023-04-21T07:24:10.261Z,19.40
2023-04-21T07:26:43.068Z,19.40
2023-04-21T07:29:16.300Z,19.40
2023-04-21T07:31:50.099Z,19.40
2023-04-21T07:34:22.832Z,19.40
2023-04-21T07:36:56.284Z,19.40
2023-04-21T07:39:29.125Z,19.40
2023-04-21T07:42:01.901Z,19.40
2023-04-21T07:44:34.712Z,19.40
2023-04-21T07:47:07.701Z,19.40
2023-04-21T07:49:40.574Z,19.40
2023-04-21T07:52:13.327Z,19.40
2023-04-21T07:54:46.178Z,19.40
2023-04-21T07:57:19.030Z,19.40
2023-04-21T07:59:56.327Z,19.40
2023-04-21T08:02:29.152Z,19.40
2023-04-21T08:05:02.190Z,19.40
2023-04-21T08:07:35.247Z,19.40
2023-04-21T08:10:08.890Z,19.40
2023-04-21T08:12:41.627Z,19.40
2023-04-21T08:15:14.763Z,19.40
2023-04-21T08:17:47.897Z,19.40
2023-04-21T08:20:25.718Z,19.40
2023-04-21T08:22:58.713Z,19.40
2023-04-21T08:25:35.903Z,19.40
2023-04-21T08:28:08.919Z,19.40
2023-04-21T08:30:42.120Z,19.40
2023-04-21T08:33:15.720Z,19.40
2023-04-21T08:36:02.510Z,19.40
2023-04-21T08:38:22.479Z,19.40
2023-04-21T08:40:55.314Z,19.40
2023-04-21T08:43:28.450Z,19.40
2023-04-21T08:46:03.703Z,19.40
2023-04-21T08:48:38.720Z,19.40
2023-04-21T08:51:13.056Z,19.40
2023-04-21T08:53:46.510Z,19.40
2023-04-21T08:56:23.583Z,19.40
2023-04-21T08:58:56.767Z,19.40
2023-04-21T09:01:29.608Z,19.40
2023-04-21T09:04:20.933Z,19.40
2023-04-21T09:06:54.223Z,19.40
2023-04-21T09:09:26.782Z,19.40
2023-04-21T09:12:03.823Z,19.40
2023-04-21T09:14:40.163Z,19.40
2023-04-21T09:17:14.052Z,19.40
2023-04-21T09:19:47.265Z,19.40
2023-04-21T09:22:21.341Z,19.40
2023-04-21T09:24:55.692Z,19.40
2023-04-21T09:27:29.348Z,19.40
2023-04-21T09:30:10.513Z,19.40
2023-04-21T09:32:44.479Z,19.40
2023-04-21T09:35:17.557Z,19.40
2023-04-21T09:37:50.498Z,19.40
2023-04-21T09:40:23.511Z,19.40
2023-04-21T09:42:56.550Z,19.40
2023-04-21T09:45:40.498Z,19.40
2023-04-21T09:48:13.240Z,19.40
2023-04-21T09:53:22.251Z,19.40
2023-04-21T09:55:58.649Z,19.40
2023-04-21T09:58:33.455Z,19.40
2023-04-21T10:01:06.599Z,19.40
2023-04-21T10:03:42.800Z,19.50
2023-04-21T10:06:16.493Z,19.50
2023-04-21T10:08:49.423Z,19.50
2023-04-21T10:11:26.995Z,19.50
2023-04-21T10:14:00.109Z,19.50
2023-04-21T10:16:33.424Z,19.50
2023-04-21T10:19:07.904Z,19.50
2023-04-21T10:21:41.659Z,19.50
2023-04-21T10:24:16.710Z,19.50
2023-04-21T10:26:49.730Z,19.50
2023-04-21T10:29:24.450Z,19.50
2023-04-21T10:31:58.272Z,19.50
2023-04-21T10:34:41.910Z,19.50
2023-04-21T10:37:17.761Z,19.50
2023-04-21T10:39:52.569Z,19.50
2023-04-21T10:42:29.816Z,19.50
2023-04-21T10:45:05.203Z,19.50
2023-04-21T10:47:46.157Z,19.50
2023-04-21T10:50:21.485Z,19.50
2023-04-21T10:53:02.411Z,19.50
2023-04-21T10:55:35.340Z,19.50
2023-04-21T10:58:10.995Z,19.50
2023-04-21T11:00:43.786Z,19.50
2023-04-21T11:03:17.065Z,19.50
2023-04-21T11:05:50.251Z,19.50
2023-04-21T11:08:23.092Z,19.50
2023-04-21T11:11:02.124Z,19.50
2023-04-21T11:13:36.223Z,19.60
2023-04-21T11:16:10.320Z,19.60
2023-04-21T11:18:44.134Z,19.60
2023-04-21T11:21:22.475Z,19.60
2023-04-21T11:23:57.335Z,19.60
2023-04-21T11:26:44.597Z,19.60
2023-04-21T11:29:17.364Z,19.60
2023-04-21T11:31:52.164Z,19.60
2023-04-21T11:34:29.441Z,19.60
2023-04-21T11:37:02.451Z,19.60
2023-04-21T11:39:35.021Z,19.60
2023-04-21T11:42:07.986Z,19.60
2023-04-21T11:44:42.961Z,19.60
2023-04-21T11:47:23.206Z,19.60
2023-04-21T11:50:00.431Z,19.60
2023-04-21T11:52:39.016Z,19.60
2023-04-21T11:55:17.637Z,19.60
2023-04-21T11:57:50.915Z,19.50
2023-04-21T12:00:24.953Z,19.50
2023-04-21T12:03:01.266Z,19.50
2023-04-21T12:05:40.814Z,19.50
2023-04-21T12:08:18.360Z,19.50
2023-04-21T12:10:52.285Z,19.50
2023-04-21T12:13:26.801Z,19.50
2023-04-21T12:15:59.751Z,19.50
2023-04-21T12:18:40.972Z,19.50
2023-04-21T12:21:15.332Z,19.50
2023-04-21T12:23:48.394Z,19.50
2023-04-21T12:26:21.605Z,19.50
2023-04-21T12:28:54.958Z,19.50
2023-04-21T12:31:27.700Z,19.50
2023-04-21T12:34:00.980Z,19.50
2023-04-21T12:36:35.960Z,19.50
2023-04-21T12:39:09.126Z,19.50
2023-04-21T12:41:42.076Z,19.50
2023-04-21T12:44:14.703Z,19.50
2023-04-21T12:46:47.617Z,19.50
2023-04-21T12:49:20.573Z,19.50
2023-04-21T12:51:56.506Z,19.50
2023-04-21T12:54:29.420Z,19.50
2023-04-21T12:57:02.226Z,19.50
2023-04-21T12:59:39.171Z,19.50
2023-04-21T13:02:12.166Z,19.50
2023-04-21T13:04:44.755Z,19.50
2023-04-21T13:07:18.076Z,19.50
2023-04-21T13:09:51.248Z,19.50
2023-04-21T13:12:23.925Z,19.60
2023-04-21T13:14:56.699Z,19.60
2023-04-21T13:17:29.704Z,19.60
2023-04-21T13:20:09.729Z,19.60
2023-04-21T13:22:42.575Z,19.60
2023-04-21T13:25:15.349Z,19.60
2023-04-21T13:27:48.734Z,19.60
2023-04-21T13:30:22.665Z,19.60
2023-04-21T13:33:01.163Z,19.60
2023-04-21T13:35:34.923Z,19.60
2023-04-21T13:38:07.836Z,19.60
2023-04-21T13:40:40.764Z,19.60
2023-04-21T13:43:13.648Z,19.60
2023-04-21T13:45:46.465Z,19.60
2023-04-21T13:48:19.926Z,19.60
2023-04-21T13:50:52.894Z,19.60
2023-04-21T13:53:26.129Z,19.70
2023-04-21T13:56:00.632Z,19.60
2023-04-21T13:58:34.127Z,19.60
2023-04-21T14:01:07.069Z,19.70
2023-04-21T14:03:40.218Z,19.70
2023-04-21T14:06:13.167Z,19.70
2023-04-21T14:08:46.056Z,19.70
2023-04-21T14:11:19.069Z,19.70
2023-04-21T14:14:07.509Z,19.70
2023-04-21T14:16:25.891Z,19.70
2023-04-21T14:18:58.933Z,19.70
2023-04-21T14:21:31.818Z,19.70
2023-04-21T14:24:04.709Z,19.70
2023-04-21T14:26:37.754Z,19.70
2023-04-21T14:29:10.728Z,19.70
2023-04-21T14:31:43.794Z,19.70
2023-04-21T14:34:17.103Z,19.70
2023-04-21T14:36:51.956Z,19.70
2023-04-21T14:39:24.968Z,19.70
2023-04-21T14:41:57.820Z,19.80
2023-04-21T14:44:30.431Z,19.70
2023-04-21T14:47:09.898Z,19.70
2023-04-21T14:49:37.228Z,19.70
2023-04-21T14:52:10.283Z,19.70
2023-04-21T14:54:42.982Z,19.70
2023-04-21T14:57:19.709Z,19.70
2023-04-21T14:59:49.877Z,19.70
2023-04-21T15:02:26.132Z,19.70
2023-04-21T15:04:59.736Z,19.70
2023-04-21T15:07:32.912Z,19.70
2023-04-21T15:10:05.836Z,19.70
2023-04-21T15:12:38.669Z,19.70
2023-04-21T15:15:12.897Z,19.70
2023-04-21T15:17:45.896Z,19.70
2023-04-21T15:20:20.854Z,19.70
2023-04-21T15:22:52.721Z,19.70
2023-04-21T15:25:25.661Z,19.70
2023-04-21T15:27:58.450Z,19.70
2023-04-21T15:30:31.359Z,19.70
2023-04-21T15:33:04.233Z,19.70
2023-04-21T15:35:42.921Z,19.70
2023-04-21T15:38:16.498Z,19.70
2023-04-21T15:41:00.241Z,19.70
2023-04-21T15:43:25.756Z,19.70
2023-04-21T15:45:58.037Z,19.70
2023-04-21T15:48:30.999Z,19.60
2023-04-21T15:51:05.675Z,19.70
2023-04-21T15:53:43.084Z,19.60
2023-04-21T15:56:16.259Z,19.70
2023-04-21T15:58:49.344Z,19.70
2023-04-21T16:01:23.599Z,19.70
2023-04-21T16:03:56.481Z,19.70
2023-04-21T16:06:33.139Z,19.70
2023-04-21T16:09:06.021Z,19.70
2023-04-21T16:11:38.930Z,19.70
2023-04-21T16:14:11.906Z,19.70
2023-04-21T16:16:44.875Z,19.70
2023-04-21T16:19:18.309Z,19.70
2023-04-21T16:21:51.374Z,19.70
2023-04-21T16:24:24.080Z,19.70
2023-04-21T16:26:57.327Z,19.70
2023-04-21T16:29:30.075Z,19.70
2023-04-21T16:32:03.200Z,19.70
2023-04-21T16:34:36.507Z,19.70
2023-04-21T16:37:10.257Z,19.70
2023-04-21T16:39:43.083Z,19.70
2023-04-21T16:42:15.988Z,19.70
2023-04-21T16:44:48.815Z,19.70
2023-04-21T16:47:21.817Z,19.70
2023-04-21T16:49:54.862Z,19.70
2023-04-21T16:52:28.979Z,19.70
2023-04-21T16:55:01.823Z,19.70
2023-04-21T16:57:34.840Z,19.70
2023-04-21T17:00:08.829Z,19.70
2023-04-21T17:02:41.823Z,19.70
2023-04-21T17:05:15.094Z,19.70
2023-04-21T17:07:47.885Z,19.80
2023-04-21T17:10:20.514Z,19.80
2023-04-21T17:12:53.744Z,19.80
2023-04-21T17:15:26.381Z,19.80
2023-04-21T17:17:59.585Z,19.80
2023-04-21T17:20:32.802Z,19.80
2023-04-21T17:23:06.110Z,19.80
2023-04-21T17:25:40.149Z,19.80
2023-04-21T17:28:13.057Z,19.80
2023-04-21T17:30:46.193Z,19.80
2023-04-21T17:33:19.666Z,19.80
2023-04-21T17:36:02.798Z,19.80
2023-04-21T17:38:27.013Z,19.90
2023-04-21T17:41:00.255Z,19.80
2023-04-21T17:43:33.172Z,19.90
2023-04-21T17:46:06.075Z,19.90
2023-04-21T17:48:39.150Z,19.90
2023-04-21T17:51:12.861Z,19.90
2023-04-21T17:53:46.090Z,19.90
2023-04-21T17:56:18.842Z,19.90
2023-04-21T17:58:51.944Z,19.90
2023-04-21T18:01:25.221Z,19.90
2023-04-21T18:04:00.773Z,19.90
2023-04-21T18:06:31.767Z,19.90
2023-04-21T18:09:09.280Z,19.90
2023-04-21T18:11:41.928Z,20.00
2023-04-21T18:14:16.106Z,19.90
2023-04-21T18:16:48.976Z,19.90
2023-04-21T18:19:21.927Z,19.90
2023-04-21T18:21:54.835Z,19.90
2023-04-21T18:24:27.557Z,19.90
2023-04-21T18:27:00.385Z,19.90
2023-04-21T18:29:33.193Z,19.90
2023-04-21T18:32:06.074Z,19.90
2023-04-21T18:34:39.603Z,20.00
2023-04-21T18:37:13.014Z,20.00
2023-04-21T18:39:45.864Z,20.00
2023-04-21T18:42:18.882Z,20.00
2023-04-21T18:44:51.775Z,20.00
2023-04-21T18:47:24.669Z,20.00
2023-04-21T18:49:57.485Z,20.00
2023-04-21T18:52:30.565Z,20.00
2023-04-21T18:55:03.479Z,20.00
2023-04-21T18:57:39.020Z,20.00
2023-04-21T19:00:12.875Z,20.00
2023-04-21T19:02:47.245Z,20.00
2023-04-21T19:05:20.439Z,20.00
2023-04-21T19:07:53.756Z,20.00
2023-04-21T19:10:26.842Z,20.00
2023-04-21T19:13:00.121Z,20.00
2023-04-21T19:15:32.997Z,20.00
2023-04-21T19:18:08.642Z,20.00
2023-04-21T19:20:41.926Z,20.00
2023-04-21T19:23:14.580Z,20.00
2023-04-21T19:25:48.118Z,20.00
2023-04-21T19:28:21.162Z,20.00
2023-04-21T19:30:54.185Z,20.00
2023-04-21T19:33:27.306Z,20.00
2023-04-21T19:36:01.940Z,20.10
2023-04-21T19:38:35.417Z,20.10
2023-04-21T19:41:08.259Z,20.10
2023-04-21T19:43:41.220Z,20.10
2023-04-21T19:46:14.244Z,20.10
2023-04-21T19:48:47.154Z,20.10
2023-04-21T19:51:20.153Z,20.10
2023-04-21T19:54:09.979Z,20.10
2023-04-21T19:56:32.584Z,20.10
2023-04-21T19:59:06.553Z,20.10
2023-04-21T20:01:39.485Z,20.10
2023-04-21T20:04:12.630Z,20.10
2023-04-21T20:06:45.805Z,20.10
2023-04-21T20:09:18.614Z,20.10
2023-04-21T20:11:56.141Z,20.10
2023-04-21T20:14:28.855Z,20.10
2023-04-21T20:17:01.905Z,20.10
2023-04-21T20:19:35.190Z,20.10
2023-04-21T20:22:08.717Z,20.10
2023-04-21T20:24:41.604Z,20.10
2023-04-21T20:27:14.409Z,20.10
2023-04-21T20:29:48.449Z,20.10
2023-04-21T20:32:21.460Z,20.10
2023-04-21T20:34:55.275Z,20.20
2023-04-21T20:37:28.937Z,20.20
2023-04-21T20:40:03.705Z,20.20
2023-04-21T20:42:36.745Z,20.20
2023-04-21T20:45:11.038Z,20.10
2023-04-21T20:47:43.835Z,20.10
2023-04-21T20:50:16.955Z,20.10
2023-04-21T20:52:49.931Z,20.10
2023-04-21T20:55:22.683Z,20.20
2023-04-21T20:57:55.522Z,20.20
2023-04-21T21:00:28.500Z,20.20
2023-04-21T21:03:01.347Z,20.20
2023-04-21T21:05:35.704Z,20.20
2023-04-21T21:08:08.870Z,20.20
2023-04-21T21:10:41.899Z,20.20
2023-04-21T21:13:14.930Z,20.20
2023-04-21T21:15:47.855Z,20.20
2023-04-21T21:18:25.032Z,20.20
2023-04-21T21:20:57.750Z,20.20
2023-04-21T21:23:30.814Z,20.20
2023-04-21T21:26:03.601Z,20.30
2023-04-21T21:28:41.370Z,20.30
2023-04-21T21:31:26.093Z,20.30
2023-04-21T21:34:00.037Z,20.30
2023-04-21T21:36:33.601Z,20.30
2023-04-21T21:39:10.906Z,20.30
2023-04-21T21:41:42.830Z,20.30
2023-04-21T21:44:16.264Z,20.30
2023-04-21T21:46:49.218Z,20.30
2023-04-21T21:49:21.959Z,20.30
2023-04-21T21:51:58.767Z,20.30
2023-04-21T21:54:29.796Z,20.40
2023-04-21T21:57:03.148Z,20.40
2023-04-21T21:59:36.523Z,20.40
2023-04-21T22:02:09.435Z,20.40
2023-04-21T22:04:42.396Z,20.40
2023-04-21T22:07:15.432Z,20.40
2023-04-21T22:09:48.432Z,20.40
2023-04-21T22:12:25.381Z,20.50
2023-04-21T22:14:58.280Z,20.50
2023-04-21T22:17:31.418Z,20.50
2023-04-21T22:20:05.570Z,20.50
2023-04-21T22:22:38.778Z,20.50
2023-04-21T22:25:12.873Z,20.50
2023-04-21T22:27:45.545Z,20.50
2023-04-21T22:30:18.634Z,20.50
2023-04-21T22:32:51.715Z,20.50
2023-04-21T22:35:24.650Z,20.60
2023-04-21T22:37:57.262Z,20.60
2023-04-21T22:40:30.087Z,20.60
2023-04-21T22:43:03.274Z,20.60
2023-04-21T22:45:36.466Z,20.60
2023-04-21T22:48:11.801Z,20.60
2023-04-21T22:50:45.934Z,20.60
2023-04-21T22:53:18.663Z,20.70
2023-04-21T22:55:51.605Z,20.70
2023-04-21T22:58:24.372Z,20.70
2023-04-21T23:00:57.106Z,20.70
2023-04-21T23:03:30.040Z,20.70
2023-04-21T23:06:03.107Z,20.70
2023-04-21T23:08:35.938Z,20.70
2023-04-21T23:11:08.776Z,20.70
2023-04-21T23:13:42.184Z,20.70
2023-04-21T23:16:15.119Z,20.70
2023-04-21T23:18:47.959Z,20.70
2023-04-21T23:21:20.928Z,20.70
2023-04-21T23:23:53.787Z,20.70
2023-04-21T23:26:26.700Z,20.70
2023-04-21T23:28:59.529Z,20.70
2023-04-21T23:31:32.673Z,20.70
2023-04-21T23:34:05.475Z,20.80
2023-04-21T23:36:38.346Z,20.80
2023-04-21T23:39:11.735Z,20.80
2023-04-21T23:41:44.516Z,20.80
2023-04-21T23:44:17.222Z,20.80
2023-04-21T23:46:50.447Z,20.80
2023-04-21T23:49:24.017Z,20.80
2023-04-21T23:51:56.622Z,20.90
2023-04-21T23:54:29.491Z,20.90
2023-04-21T23:57:02.949Z,20.90
2023-04-21T23:59:36.015Z,20.90
